createdAt,value
2022-09-02T00:01:43.646Z,10.50
2022-09-02T00:04:15.933Z,9.53
2022-09-02T00:06:46.017Z,9.93
2022-09-02T00:09:17.130Z,10.53
2022-09-02T00:11:47.097Z,9.43
2022-09-02T00:14:22.965Z,9.63
2022-09-02T00:16:54.446Z,9.00
2022-09-02T00:19:25.656Z,9.20
2022-09-02T00:21:55.855Z,8.50
2022-09-02T00:24:25.864Z,8.60
2022-09-02T00:26:56.515Z,8.40
2022-09-02T00:29:26.643Z,8.20
2022-09-02T00:31:55.527Z,7.80
2022-09-02T00:34:24.729Z,7.07
2022-09-02T00:37:56.044Z,8.40
2022-09-02T00:40:24.645Z,6.50
2022-09-02T00:42:53.868Z,7.00
2022-09-02T00:45:23.098Z,6.63
2022-09-02T00:47:52.647Z,7.30
2022-09-02T00:50:25.443Z,7.27
2022-09-02T00:53:10.783Z,6.40
2022-09-02T00:55:45.831Z,6.83
2022-09-02T00:58:21.757Z,8.50
2022-09-02T01:00:53.445Z,7.63
2022-09-02T01:03:24.585Z,6.80
2022-09-02T01:05:54.947Z,8.00
2022-09-02T01:08:28.000Z,6.57
2022-09-02T01:10:57.600Z,7.40
2022-09-02T01:13:31.306Z,6.70
2022-09-02T01:16:12.648Z,6.97
2022-09-02T01:18:45.077Z,7.07
2022-09-02T01:21:14.142Z,6.60
2022-09-02T01:23:42.741Z,6.93
2022-09-02T01:26:11.577Z,6.90
2022-09-02T01:28:40.444Z,6.70
2022-09-02T01:31:08.949Z,7.27
2022-09-02T01:33:37.398Z,6.10
2022-09-02T01:36:06.659Z,6.37
2022-09-02T01:38:35.030Z,6.03
2022-09-02T01:41:03.472Z,6.30
2022-09-02T01:43:31.967Z,6.43
2022-09-02T01:46:00.922Z,6.37
2022-09-02T01:48:29.263Z,7.27
2022-09-02T01:51:01.671Z,6.30
2022-09-02T01:53:31.352Z,7.80
2022-09-02T01:55:59.790Z,6.37
2022-09-02T01:58:28.360Z,6.33
2022-09-02T02:00:56.944Z,6.30
2022-09-02T02:03:26.157Z,5.93
2022-09-02T02:05:54.604Z,5.90
2022-09-02T02:08:25.103Z,6.07
2022-09-02T02:10:53.490Z,6.30
2022-09-02T02:13:22.013Z,5.67
2022-09-02T02:15:50.483Z,6.30
2022-09-02T02:18:18.877Z,6.47
2022-09-02T02:20:47.394Z,6.37
2022-09-02T02:23:15.814Z,6.17
2022-09-02T02:25:44.359Z,6.30
2022-09-02T02:28:13.056Z,6.37
2022-09-02T02:30:41.503Z,6.53
2022-09-02T02:33:09.864Z,6.13
2022-09-02T02:35:38.424Z,6.50
2022-09-02T02:38:06.809Z,6.60
2022-09-02T02:40:35.369Z,6.00
2022-09-02T02:43:03.888Z,6.80
2022-09-02T02:45:32.544Z,7.40
2022-09-02T02:48:00.960Z,7.20
2022-09-02T02:50:29.418Z,7.50
2022-09-02T02:52:58.140Z,7.10
2022-09-02T02:55:27.122Z,7.00
2022-09-02T02:57:55.670Z,7.60
2022-09-02T03:00:27.166Z,8.17
2022-09-02T03:03:03.378Z,8.33
2022-09-02T03:05:32.129Z,8.53
2022-09-02T03:08:00.583Z,8.33
2022-09-02T03:10:29.058Z,8.50
2022-09-02T03:12:57.635Z,8.50
2022-09-02T03:15:26.025Z,8.90
2022-09-02T03:17:55.620Z,8.63
2022-09-02T03:20:25.126Z,7.97
2022-09-02T03:22:57.272Z,9.30
2022-09-02T03:25:29.551Z,8.47
2022-09-02T03:28:01.039Z,8.97
2022-09-02T03:30:31.717Z,9.13
2022-09-02T03:33:04.260Z,8.77
2022-09-02T03:35:35.438Z,9.27
2022-09-02T03:38:03.848Z,9.90
2022-09-02T03:40:33.336Z,9.43
2022-09-02T03:43:03.393Z,9.60
2022-09-02T03:45:32.944Z,10.07
2022-09-02T03:48:01.756Z,9.53
2022-09-02T03:50:40.762Z,8.60
2022-09-02T03:53:18.059Z,9.00
2022-09-02T03:55:50.602Z,9.77
2022-09-02T03:58:20.064Z,9.63
2022-09-02T04:00:54.816Z,9.87
2022-09-02T04:03:23.835Z,9.93
2022-09-02T04:05:53.209Z,10.50
2022-09-02T04:08:22.128Z,9.80
2022-09-02T04:10:50.945Z,10.53
2022-09-02T04:13:19.854Z,10.33
2022-09-02T04:15:49.980Z,10.57
2022-09-02T04:18:19.065Z,11.10
2022-09-02T04:20:47.721Z,10.10
2022-09-02T04:23:16.577Z,9.63
2022-09-02T04:25:45.468Z,10.27
2022-09-02T04:28:13.899Z,10.60
2022-09-02T04:30:43.983Z,10.53
2022-09-02T04:33:13.069Z,10.80
2022-09-02T04:35:43.771Z,10.53
2022-09-02T04:38:13.115Z,11.10
2022-09-02T04:40:43.976Z,10.13
2022-09-02T04:43:12.904Z,10.40
2022-09-02T04:45:46.330Z,11.10
2022-09-02T04:48:14.836Z,10.73
2022-09-02T04:50:44.303Z,11.13
2022-09-02T04:53:13.670Z,10.80
2022-09-02T04:55:43.133Z,11.60
2022-09-02T04:58:12.192Z,10.90
2022-09-02T05:00:42.982Z,9.57
2022-09-02T05:03:13.911Z,10.20
2022-09-02T05:05:42.288Z,11.37
2022-09-02T05:08:13.964Z,11.67
2022-09-02T05:10:42.573Z,11.07
2022-09-02T05:13:11.027Z,11.30
2022-09-02T05:15:45.858Z,11.17
2022-09-02T05:18:14.331Z,11.40
2022-09-02T05:20:44.535Z,10.97
2022-09-02T05:23:14.497Z,11.07
2022-09-02T05:25:43.070Z,10.77
2022-09-02T05:28:12.276Z,10.20
2022-09-02T05:30:42.675Z,11.47
2022-09-02T05:33:13.439Z,11.17
2022-09-02T05:35:45.474Z,12.40
2022-09-02T05:38:15.700Z,12.10
2022-09-02T05:40:44.213Z,12.60
2022-09-02T05:43:12.740Z,10.80
2022-09-02T05:45:41.680Z,12.30
2022-09-02T05:48:28.440Z,11.50
2022-09-02T05:50:57.677Z,12.00
2022-09-02T05:53:27.669Z,12.13
2022-09-02T05:55:56.368Z,12.23
2022-09-02T05:58:25.632Z,12.70
2022-09-02T06:00:54.320Z,12.97
2022-09-02T06:03:23.072Z,13.40
2022-09-02T06:05:56.728Z,12.27
2022-09-02T06:08:25.987Z,13.30
2022-09-02T06:10:54.417Z,12.67
2022-09-02T06:13:23.401Z,12.30
2022-09-02T06:15:53.222Z,13.10
2022-09-02T06:18:21.749Z,12.00
2022-09-02T06:20:51.873Z,12.53
2022-09-02T06:23:20.586Z,12.90
2022-09-02T06:25:50.551Z,11.90
2022-09-02T06:28:19.059Z,13.00
2022-09-02T06:30:49.523Z,12.73
2022-09-02T06:33:18.486Z,13.17
2022-09-02T06:35:47.637Z,13.43
2022-09-02T06:38:17.005Z,13.97
2022-09-02T06:40:56.281Z,13.30
2022-09-02T06:43:24.862Z,13.07
2022-09-02T06:45:53.421Z,14.00
2022-09-02T06:48:21.911Z,13.60
2022-09-02T06:50:50.445Z,13.63
2022-09-02T06:53:20.162Z,13.50
2022-09-02T06:55:48.790Z,13.50
2022-09-02T06:58:17.466Z,13.03
2022-09-02T07:00:46.365Z,12.90
2022-09-02T07:03:33.491Z,12.93
2022-09-02T07:06:10.436Z,14.23
2022-09-02T07:08:40.562Z,12.87
2022-09-02T07:11:16.739Z,12.60
2022-09-02T07:13:45.370Z,13.80
2022-09-02T07:16:18.470Z,13.73
2022-09-02T07:18:55.693Z,12.50
2022-09-02T07:21:24.329Z,12.87
2022-09-02T07:23:52.881Z,13.63
2022-09-02T07:26:21.424Z,14.93
2022-09-02T07:28:50.016Z,12.53
2022-09-02T07:31:18.989Z,13.00
2022-09-02T07:33:50.122Z,13.27
2022-09-02T07:36:22.387Z,13.20
2022-09-02T07:38:51.034Z,13.97
2022-09-02T07:41:20.089Z,12.47
2022-09-02T07:43:51.127Z,12.73
2022-09-02T07:46:20.522Z,13.20
2022-09-02T07:48:52.596Z,12.90
2022-09-02T07:51:21.577Z,13.63
2022-09-02T07:53:51.132Z,13.30
2022-09-02T07:56:19.952Z,12.83
2022-09-02T07:58:48.804Z,13.30
2022-09-02T08:01:22.624Z,12.93
2022-09-02T08:03:52.712Z,12.70
2022-09-02T08:06:34.602Z,14.10
2022-09-02T08:09:07.677Z,14.70
2022-09-02T08:11:39.793Z,13.70
2022-09-02T08:14:12.228Z,14.60
2022-09-02T08:16:41.452Z,12.37
2022-09-02T08:19:10.127Z,14.07
2022-09-02T08:21:38.566Z,14.60
2022-09-02T08:24:07.017Z,14.87
2022-09-02T08:26:38.178Z,15.60
2022-09-02T08:29:08.111Z,14.33
2022-09-02T08:31:39.085Z,14.10
2022-09-02T08:34:07.661Z,13.90
2022-09-02T08:36:36.252Z,13.67
2022-09-02T08:39:06.092Z,13.67
2022-09-02T08:42:11.057Z,12.80
2022-09-02T08:44:40.836Z,13.77
2022-09-02T08:47:17.308Z,14.67
2022-09-02T08:49:51.963Z,13.57
2022-09-02T08:52:31.075Z,13.57
2022-09-02T08:54:59.661Z,14.90
2022-09-02T08:57:28.457Z,14.30
2022-09-02T08:59:59.506Z,13.93
2022-09-02T09:02:31.197Z,13.73
2022-09-02T09:05:07.101Z,13.93
2022-09-02T09:07:47.651Z,13.73
2022-09-02T09:10:57.727Z,13.50
2022-09-02T09:14:01.848Z,13.43
2022-09-02T09:16:47.650Z,13.60
2022-09-02T09:19:47.825Z,13.70
2022-09-02T09:22:20.660Z,13.70
2022-09-02T09:24:51.352Z,12.90
2022-09-02T09:27:22.694Z,12.80
2022-09-02T09:29:52.888Z,14.00
2022-09-02T09:32:29.540Z,14.00
2022-09-02T09:35:09.361Z,14.93
2022-09-02T09:37:41.582Z,15.00
2022-09-02T09:40:22.490Z,13.63
2022-09-02T09:42:59.799Z,13.87
2022-09-02T09:45:43.238Z,14.13
2022-09-02T09:48:17.759Z,15.70
2022-09-02T09:51:08.895Z,14.30
2022-09-02T09:53:38.697Z,15.20
2022-09-02T09:56:24.109Z,13.87
2022-09-02T09:58:52.919Z,13.80
2022-09-02T10:01:36.687Z,14.47
2022-09-02T10:04:42.793Z,13.70
2022-09-02T10:07:14.139Z,14.03
2022-09-02T10:09:43.455Z,13.30
2022-09-02T10:12:14.812Z,13.07
2022-09-02T10:14:48.478Z,13.40
2022-09-02T10:17:45.931Z,13.20
2022-09-02T10:20:53.160Z,11.80
2022-09-02T10:23:44.863Z,13.90
2022-09-02T10:26:49.961Z,13.80
2022-09-02T10:29:40.319Z,14.10
2022-09-02T10:32:23.141Z,13.93
2022-09-02T10:35:03.502Z,13.00
2022-09-02T10:37:57.059Z,13.73
2022-09-02T10:40:35.936Z,13.03
2022-09-02T10:43:08.989Z,13.30
2022-09-02T10:45:53.842Z,13.50
2022-09-02T10:48:43.827Z,14.20
2022-09-02T10:51:55.158Z,13.20
2022-09-02T10:54:58.165Z,12.50
2022-09-02T10:57:36.243Z,12.70
2022-09-02T11:00:15.314Z,11.93
2022-09-02T11:02:57.082Z,12.60
2022-09-02T11:05:40.821Z,12.40
2022-09-02T11:08:34.915Z,14.17
2022-09-02T11:11:27.703Z,13.80
2022-09-02T11:14:11.481Z,12.43
2022-09-02T11:17:01.003Z,13.60
2022-09-02T11:19:50.465Z,13.03
2022-09-02T11:22:55.759Z,11.63
2022-09-02T11:25:36.355Z,13.27
2022-09-02T11:28:29.441Z,12.83
2022-09-02T11:31:21.902Z,12.90
2022-09-02T11:34:12.841Z,13.87
2022-09-02T11:36:42.533Z,12.00
2022-09-02T11:39:36.452Z,13.00
2022-09-02T11:42:25.488Z,13.23
2022-09-02T11:45:12.219Z,13.10
2022-09-02T11:47:57.316Z,12.13
2022-09-02T11:50:43.265Z,12.50
2022-09-02T11:53:40.674Z,11.40
2022-09-02T11:56:20.577Z,12.17
2022-09-02T11:58:53.824Z,12.77
2022-09-02T12:01:33.294Z,12.13
2022-09-02T12:07:09.426Z,13.47
2022-09-02T12:12:37.384Z,12.60
2022-09-02T12:15:06.249Z,14.63
2022-09-02T12:17:38.951Z,13.20
2022-09-02T12:20:10.470Z,12.97
2022-09-02T12:22:40.913Z,12.70
2022-09-02T12:25:29.291Z,12.23
2022-09-02T12:28:23.907Z,12.77
2022-09-02T12:31:06.170Z,15.60
2022-09-02T12:33:34.661Z,14.03
2022-09-02T12:36:06.469Z,13.40
2022-09-02T12:38:35.724Z,13.07
2022-09-02T12:41:12.996Z,14.53
2022-09-02T12:44:11.832Z,14.20
2022-09-02T12:46:51.290Z,14.33
2022-09-02T12:49:43.972Z,13.23
2022-09-02T12:52:37.033Z,13.67
2022-09-02T12:55:30.641Z,13.70
2022-09-02T12:58:20.818Z,14.40
2022-09-02T13:01:24.884Z,13.87
2022-09-02T13:04:22.905Z,12.63
2022-09-02T13:06:54.931Z,14.17
2022-09-02T13:09:56.936Z,14.43
2022-09-02T13:12:51.076Z,12.90
2022-09-02T13:15:54.909Z,12.77
2022-09-02T13:19:00.519Z,13.30
2022-09-02T13:21:42.056Z,13.67
2022-09-02T13:24:14.275Z,13.50
2022-09-02T13:27:12.029Z,13.53
2022-09-02T13:30:11.942Z,15.80
2022-09-02T13:32:40.451Z,14.07
2022-09-02T13:35:23.786Z,12.60
2022-09-02T13:38:00.643Z,14.70
2022-09-02T13:40:35.059Z,13.40
2022-09-02T13:43:13.936Z,13.80
2022-09-02T13:45:43.796Z,13.80
2022-09-02T13:48:26.005Z,14.83
2022-09-02T13:51:01.046Z,15.90
2022-09-02T13:53:45.426Z,14.50
2022-09-02T13:56:29.248Z,14.80
2022-09-02T13:58:57.964Z,14.07
2022-09-02T14:01:31.179Z,14.10
2022-09-02T14:04:02.887Z,15.20
2022-09-02T14:06:38.338Z,15.20
2022-09-02T14:09:12.201Z,13.90
2022-09-02T14:11:46.571Z,13.60
2022-09-02T14:14:21.101Z,15.30
2022-09-02T14:16:49.548Z,15.13
2022-09-02T14:19:25.281Z,15.23
2022-09-02T14:21:59.463Z,15.90
2022-09-02T14:24:38.210Z,14.50
2022-09-02T14:27:19.367Z,16.80
2022-09-02T14:29:51.294Z,17.07
2022-09-02T14:32:28.559Z,14.80
2022-09-02T14:35:18.219Z,16.00
2022-09-02T14:37:58.544Z,17.40
2022-09-02T14:40:38.430Z,15.73
2022-09-02T14:43:15.706Z,15.80
2022-09-02T14:45:49.504Z,16.70
2022-09-02T14:48:26.472Z,15.30
2022-09-02T14:51:04.198Z,15.97
2022-09-02T14:53:38.460Z,15.37
2022-09-02T14:56:07.610Z,16.53
2022-09-02T14:58:36.011Z,16.10
2022-09-02T15:01:05.491Z,17.23
2022-09-02T15:03:39.420Z,16.27
2022-09-02T15:06:10.842Z,14.80
2022-09-02T15:08:41.688Z,15.50
2022-09-02T15:11:10.156Z,15.90
2022-09-02T15:13:38.557Z,14.90
2022-09-02T15:16:07.053Z,15.90
2022-09-02T15:18:35.520Z,16.50
2022-09-02T15:21:04.319Z,14.40
2022-09-02T15:23:34.740Z,16.37
2022-09-02T15:26:03.978Z,16.40
2022-09-02T15:28:32.515Z,16.83
2022-09-02T15:31:02.308Z,16.03
2022-09-02T15:33:31.236Z,14.30
2022-09-02T15:36:11.694Z,17.43
2022-09-02T15:38:44.107Z,15.30
2022-09-02T15:41:27.357Z,15.83
2022-09-02T15:43:56.261Z,15.40
2022-09-02T15:46:26.627Z,16.53
2022-09-02T15:49:01.675Z,14.30
2022-09-02T15:51:31.120Z,15.30
2022-09-02T15:54:04.808Z,14.83
2022-09-02T15:56:34.533Z,15.37
2022-09-02T15:59:05.308Z,16.13
2022-09-02T16:01:34.923Z,14.43
2022-09-02T16:04:03.793Z,15.43
2022-09-02T16:06:35.164Z,13.10
2022-09-02T16:09:04.704Z,12.87
2022-09-02T16:11:33.125Z,11.60
2022-09-02T16:14:04.520Z,13.80
2022-09-02T16:16:34.313Z,13.37
2022-09-02T16:19:04.019Z,17.70
2022-09-02T16:21:32.637Z,16.07
2022-09-02T16:24:01.093Z,15.40
2022-09-02T16:26:31.652Z,15.13
2022-09-02T16:29:02.475Z,14.20
2022-09-02T16:31:32.345Z,16.40
2022-09-02T16:34:05.503Z,16.80
2022-09-02T16:36:36.404Z,15.60
2022-09-02T16:39:06.465Z,15.53
2022-09-02T16:41:44.657Z,16.67
2022-09-02T16:44:22.064Z,18.10
2022-09-02T16:46:52.392Z,18.00
2022-09-02T16:49:23.378Z,15.50
2022-09-02T16:51:58.118Z,16.90
2022-09-02T16:54:30.947Z,17.87
2022-09-02T16:57:00.932Z,16.83
2022-09-02T16:59:29.755Z,16.77
2022-09-02T17:01:58.629Z,17.10
2022-09-02T17:04:27.065Z,16.60
2022-09-02T17:06:55.537Z,13.43
2022-09-02T17:09:23.968Z,15.53
2022-09-02T17:11:54.252Z,15.60
2022-09-02T17:14:22.946Z,13.07
2022-09-02T17:16:52.797Z,15.03
2022-09-02T17:19:22.360Z,17.37
2022-09-02T17:21:53.241Z,18.33
2022-09-02T17:24:24.840Z,17.07
2022-09-02T17:26:56.697Z,17.43
2022-09-02T17:32:20.258Z,16.20
2022-09-02T17:34:51.598Z,17.37
2022-09-02T17:37:21.039Z,16.57
2022-09-02T17:39:50.498Z,15.40
2022-09-02T17:42:19.218Z,16.73
2022-09-02T17:44:47.822Z,17.20
2022-09-02T17:47:19.438Z,17.90
2022-09-02T17:49:49.191Z,18.13
2022-09-02T17:52:26.672Z,16.60
2022-09-02T17:54:55.394Z,16.50
2022-09-02T17:57:45.679Z,16.63
2022-09-02T18:00:17.227Z,15.97
2022-09-02T18:03:12.453Z,18.23
2022-09-02T18:05:59.060Z,16.40
2022-09-02T18:08:27.556Z,16.47
2022-09-02T18:11:05.231Z,16.13
2022-09-02T18:13:33.589Z,14.87
2022-09-02T18:16:24.105Z,15.17
2022-09-02T18:19:14.353Z,14.23
2022-09-02T18:21:52.769Z,13.83
2022-09-02T18:24:41.453Z,14.63
2022-09-02T18:27:27.414Z,16.20
2022-09-02T18:30:13.607Z,15.90
2022-09-02T18:33:02.650Z,14.30
2022-09-02T18:35:55.661Z,15.17
2022-09-02T18:38:30.124Z,14.23
2022-09-02T18:41:00.547Z,15.97
2022-09-02T18:43:38.018Z,15.73
2022-09-02T18:46:08.159Z,14.83
2022-09-02T18:48:37.843Z,15.27
2022-09-02T18:51:41.820Z,16.60
2022-09-02T18:54:23.587Z,15.80
2022-09-02T18:57:02.481Z,15.57
2022-09-02T18:59:52.218Z,15.57
2022-09-02T19:02:32.664Z,15.57
2022-09-02T19:05:02.181Z,15.30
2022-09-02T19:07:49.022Z,15.63
2022-09-02T19:10:17.409Z,15.27
2022-09-02T19:12:46.157Z,14.20
2022-09-02T19:15:17.462Z,14.30
2022-09-02T19:17:45.870Z,14.63
2022-09-02T19:20:14.818Z,15.27
2022-09-02T19:22:49.073Z,14.80
2022-09-02T19:25:21.947Z,14.77
2022-09-02T19:27:53.809Z,14.87
2022-09-02T19:30:23.755Z,14.67
2022-09-02T19:32:55.715Z,14.50
2022-09-02T19:35:28.253Z,13.90
2022-09-02T19:37:57.073Z,14.57
2022-09-02T19:40:29.274Z,14.30
2022-09-02T19:42:57.789Z,13.83
2022-09-02T19:45:29.909Z,14.60
2022-09-02T19:48:09.291Z,13.70
2022-09-02T19:50:43.039Z,13.40
2022-09-02T19:53:17.004Z,14.23
2022-09-02T19:55:45.778Z,14.57
2022-09-02T19:58:14.631Z,13.93
2022-09-02T20:00:43.631Z,14.07
2022-09-02T20:03:12.720Z,14.30
2022-09-02T20:05:42.223Z,14.43
2022-09-02T20:08:10.721Z,13.37
2022-09-02T20:10:40.398Z,13.20
2022-09-02T20:13:14.420Z,13.50
2022-09-02T20:15:42.839Z,13.23
2022-09-02T20:18:16.303Z,12.80
2022-09-02T20:20:47.348Z,14.07
2022-09-02T20:23:18.662Z,12.77
2022-09-02T20:26:08.203Z,12.03
2022-09-02T20:28:58.333Z,13.27
2022-09-02T20:31:53.466Z,14.10
2022-09-02T20:34:43.155Z,14.10
2022-09-02T20:37:30.143Z,13.10
2022-09-02T20:40:25.738Z,13.67
2022-09-02T20:43:12.819Z,13.50
2022-09-02T20:45:46.156Z,13.87
2022-09-02T20:49:00.266Z,12.83
2022-09-02T20:52:01.609Z,13.73
2022-09-02T20:54:32.962Z,13.57
2022-09-02T20:57:04.852Z,14.23
2022-09-02T20:59:53.416Z,13.40
2022-09-02T21:02:28.835Z,13.40
2022-09-02T21:05:22.139Z,13.07
2022-09-02T21:08:02.252Z,14.97
2022-09-02T21:10:43.949Z,14.33
2022-09-02T21:13:21.546Z,13.77
2022-09-02T21:15:56.583Z,14.30
2022-09-02T21:18:55.695Z,13.33
2022-09-02T21:21:35.520Z,14.37
2022-09-02T21:24:20.449Z,15.27
2022-09-02T21:27:01.911Z,15.00
2022-09-02T21:30:04.169Z,13.70
2022-09-02T21:32:41.265Z,13.83
2022-09-02T21:35:21.252Z,13.43
2022-09-02T21:37:53.973Z,14.30
2022-09-02T21:40:26.443Z,13.70
2022-09-02T21:43:15.840Z,16.30
2022-09-02T21:45:59.184Z,15.23
2022-09-02T21:48:33.087Z,14.00
2022-09-02T21:51:09.509Z,14.50
2022-09-02T21:54:02.846Z,14.33
2022-09-02T21:56:58.502Z,15.10
2022-09-02T21:59:48.876Z,15.00
2022-09-02T22:02:53.295Z,13.50
2022-09-02T22:05:40.156Z,14.40
2022-09-02T22:08:24.356Z,15.80
2022-09-02T22:11:11.727Z,15.03
2022-09-02T22:13:42.725Z,15.17
2022-09-02T22:16:40.183Z,15.07
2022-09-02T22:19:10.125Z,13.63
2022-09-02T22:21:56.006Z,14.90
2022-09-02T22:24:29.396Z,14.83
2022-09-02T22:27:07.224Z,15.53
2022-09-02T22:29:55.747Z,14.90
2022-09-02T22:36:15.490Z,14.87
2022-09-02T22:38:50.103Z,15.03
2022-09-02T22:41:21.369Z,14.20
2022-09-02T22:44:10.730Z,15.17
2022-09-02T22:47:00.291Z,14.83
2022-09-02T22:49:50.853Z,14.30
2022-09-02T22:52:55.823Z,14.27
2022-09-02T22:55:47.269Z,15.47
2022-09-02T22:58:42.126Z,16.23
2022-09-02T23:01:47.571Z,15.23
2022-09-02T23:04:37.048Z,15.23
2022-09-02T23:07:06.195Z,16.60
2022-09-02T23:09:38.709Z,15.60
2022-09-02T23:12:14.398Z,17.33
2022-09-02T23:15:09.762Z,16.17
2022-09-02T23:18:02.308Z,15.63
2022-09-02T23:20:48.997Z,16.23
2022-09-02T23:23:32.498Z,15.00
2022-09-02T23:26:20.689Z,14.60
2022-09-02T23:29:00.931Z,14.83
2022-09-02T23:32:24.370Z,15.20
2022-09-02T23:35:00.275Z,14.63
2022-09-02T23:38:01.067Z,14.20
2022-09-02T23:40:52.054Z,13.63
2022-09-02T23:43:20.845Z,14.60
2022-09-02T23:45:49.662Z,14.30
2022-09-02T23:48:29.584Z,13.70
2022-09-02T23:51:17.084Z,13.43
2022-09-02T23:54:04.766Z,13.40
2022-09-02T23:56:52.011Z,14.83
2022-09-02T23:59:53.587Z,15.47
